sensor_id;sensor_type;location;lat;lon;timestamp;P1;durP1;ratioP1;P2;durP2;ratioP2
79173;SDS011;68599;49.142;9.124;2024-03-22T00:02:09;5.20;;;1.90;;
79173;SDS011;68599;49.142;9.124;2024-03-22T00:04:38;4.30;;;2.50;;
79173;SDS011;68599;49.142;9.124;2024-03-22T00:07:04;3.90;;;2.00;;
79173;SDS011;68599;49.142;9.124;2024-03-22T00:09:31;2.40;;;1.40;;
79173;SDS011;68599;49.142;9.124;2024-03-22T00:11:57;3.30;;;2.00;;
79173;SDS011;68599;49.142;9.124;2024-03-22T00:14:24;3.60;;;2.10;;
79173;SDS011;68599;49.142;9.124;2024-03-22T00:16:50;4.20;;;2.10;;
79173;SDS011;68599;49.142;9.124;2024-03-22T00:19:16;5.70;;;2.40;;
79173;SDS011;68599;49.142;9.124;2024-03-22T00:21:43;5.80;;;2.20;;
79173;SDS011;68599;49.142;9.124;2024-03-22T00:24:09;2.80;;;1.50;;
79173;SDS011;68599;49.142;9.124;2024-03-22T00:26:36;4.00;;;2.00;;
79173;SDS011;68599;49.142;9.124;2024-03-22T00:29:02;7.20;;;2.40;;
79173;SDS011;68599;49.142;9.124;2024-03-22T00:31:28;3.00;;;1.80;;
79173;SDS011;68599;49.142;9.124;2024-03-22T00:33:55;4.30;;;2.20;;
79173;SDS011;68599;49.142;9.124;2024-03-22T00:36:21;2.90;;;1.90;;
79173;SDS011;68599;49.142;9.124;2024-03-22T00:38:47;3.20;;;1.30;;
79173;SDS011;68599;49.142;9.124;2024-03-22T00:41:14;3.50;;;1.80;;
79173;SDS011;68599;49.142;9.124;2024-03-22T00:43:40;3.00;;;1.60;;
79173;SDS011;68599;49.142;9.124;2024-03-22T00:46:06;3.00;;;1.80;;
79173;SDS011;68599;49.142;9.124;2024-03-22T00:48:33;4.10;;;2.20;;
79173;SDS011;68599;49.142;9.124;2024-03-22T00:51:02;3.80;;;2.00;;
79173;SDS011;68599;49.142;9.124;2024-03-22T00:53:29;6.00;;;2.20;;
79173;SDS011;68599;49.142;9.124;2024-03-22T00:55:55;5.10;;;2.40;;
79173;SDS011;68599;49.142;9.124;2024-03-22T00:58:22;3.80;;;2.20;;
79173;SDS011;68599;49.142;9.124;2024-03-22T01:00:48;5.70;;;2.60;;
79173;SDS011;68599;49.142;9.124;2024-03-22T01:03:15;3.10;;;1.80;;
79173;SDS011;68599;49.142;9.124;2024-03-22T01:05:41;5.30;;;2.30;;
79173;SDS011;68599;49.142;9.124;2024-03-22T01:08:08;4.10;;;2.20;;
79173;SDS011;68599;49.142;9.124;2024-03-22T01:10:35;5.00;;;2.40;;
79173;SDS011;68599;49.142;9.124;2024-03-22T01:13:01;4.30;;;2.40;;
79173;SDS011;68599;49.142;9.124;2024-03-22T01:15:28;4.30;;;2.50;;
79173;SDS011;68599;49.142;9.124;2024-03-22T01:17:54;3.80;;;2.50;;
79173;SDS011;68599;49.142;9.124;2024-03-22T01:20:21;5.50;;;2.50;;
79173;SDS011;68599;49.142;9.124;2024-03-22T01:22:47;5.90;;;2.90;;
79173;SDS011;68599;49.142;9.124;2024-03-22T01:25:14;3.40;;;2.10;;
79173;SDS011;68599;49.142;9.124;2024-03-22T01:27:40;6.30;;;2.80;;
79173;SDS011;68599;49.142;9.124;2024-03-22T01:30:07;5.10;;;2.60;;
79173;SDS011;68599;49.142;9.124;2024-03-22T01:32:35;4.00;;;1.80;;
79173;SDS011;68599;49.142;9.124;2024-03-22T01:35:03;3.70;;;2.20;;
79173;SDS011;68599;49.142;9.124;2024-03-22T01:37:30;5.20;;;2.40;;
79173;SDS011;68599;49.142;9.124;2024-03-22T01:39:56;4.20;;;2.50;;
79173;SDS011;68599;49.142;9.124;2024-03-22T01:44:50;4.80;;;2.50;;
79173;SDS011;68599;49.142;9.124;2024-03-22T01:47:16;3.90;;;1.90;;
79173;SDS011;68599;49.142;9.124;2024-03-22T01:49:43;5.80;;;2.50;;
79173;SDS011;68599;49.142;9.124;2024-03-22T01:52:10;5.50;;;2.60;;
79173;SDS011;68599;49.142;9.124;2024-03-22T01:54:36;3.60;;;1.70;;
79173;SDS011;68599;49.142;9.124;2024-03-22T01:57:03;3.00;;;2.00;;
79173;SDS011;68599;49.142;9.124;2024-03-22T01:59:29;4.00;;;2.00;;
79173;SDS011;68599;49.142;9.124;2024-03-22T02:01:56;3.60;;;2.10;;
79173;SDS011;68599;49.142;9.124;2024-03-22T02:04:22;3.80;;;2.20;;
79173;SDS011;68599;49.142;9.124;2024-03-22T02:06:49;4.10;;;2.40;;
79173;SDS011;68599;49.142;9.124;2024-03-22T02:09:15;8.30;;;2.30;;
79173;SDS011;68599;49.142;9.124;2024-03-22T02:11:42;4.60;;;2.50;;
79173;SDS011;68599;49.142;9.124;2024-03-22T02:14:08;3.50;;;2.10;;
79173;SDS011;68599;49.142;9.124;2024-03-22T02:16:35;3.30;;;2.20;;
79173;SDS011;68599;49.142;9.124;2024-03-22T02:19:01;3.90;;;2.40;;
79173;SDS011;68599;49.142;9.124;2024-03-22T02:21:28;4.20;;;2.20;;
79173;SDS011;68599;49.142;9.124;2024-03-22T02:23:54;3.40;;;2.00;;
79173;SDS011;68599;49.142;9.124;2024-03-22T02:26:20;4.60;;;2.30;;
79173;SDS011;68599;49.142;9.124;2024-03-22T02:28:46;4.00;;;2.40;;
79173;SDS011;68599;49.142;9.124;2024-03-22T02:31:13;3.70;;;2.20;;
79173;SDS011;68599;49.142;9.124;2024-03-22T02:33:39;4.80;;;2.10;;
79173;SDS011;68599;49.142;9.124;2024-03-22T02:36:06;3.50;;;2.20;;
79173;SDS011;68599;49.142;9.124;2024-03-22T02:38:32;3.90;;;2.50;;
79173;SDS011;68599;49.142;9.124;2024-03-22T02:40:58;5.50;;;2.30;;
79173;SDS011;68599;49.142;9.124;2024-03-22T02:43:25;3.50;;;1.80;;
79173;SDS011;68599;49.142;9.124;2024-03-22T02:45:51;3.80;;;2.10;;
79173;SDS011;68599;49.142;9.124;2024-03-22T02:48:17;5.30;;;2.40;;
79173;SDS011;68599;49.142;9.124;2024-03-22T02:50:44;4.90;;;2.60;;
79173;SDS011;68599;49.142;9.124;2024-03-22T02:53:10;4.30;;;2.50;;
79173;SDS011;68599;49.142;9.124;2024-03-22T02:55:37;4.50;;;2.20;;
79173;SDS011;68599;49.142;9.124;2024-03-22T02:58:05;3.40;;;1.70;;
79173;SDS011;68599;49.142;9.124;2024-03-22T03:00:36;4.90;;;2.40;;
79173;SDS011;68599;49.142;9.124;2024-03-22T03:03:04;2.90;;;1.80;;
79173;SDS011;68599;49.142;9.124;2024-03-22T03:05:31;3.90;;;2.10;;
79173;SDS011;68599;49.142;9.124;2024-03-22T03:07:58;4.20;;;2.40;;
79173;SDS011;68599;49.142;9.124;2024-03-22T03:10:25;3.90;;;1.80;;
79173;SDS011;68599;49.142;9.124;2024-03-22T03:12:53;4.50;;;2.40;;
79173;SDS011;68599;49.142;9.124;2024-03-22T03:15:20;3.60;;;2.20;;
79173;SDS011;68599;49.142;9.124;2024-03-22T03:17:47;4.10;;;2.20;;
79173;SDS011;68599;49.142;9.124;2024-03-22T03:20:13;3.80;;;2.10;;
79173;SDS011;68599;49.142;9.124;2024-03-22T03:22:40;4.60;;;2.10;;
79173;SDS011;68599;49.142;9.124;2024-03-22T03:25:07;5.00;;;2.50;;
79173;SDS011;68599;49.142;9.124;2024-03-22T03:30:01;3.40;;;1.70;;
79173;SDS011;68599;49.142;9.124;2024-03-22T03:34:54;3.90;;;2.10;;
79173;SDS011;68599;49.142;9.124;2024-03-22T03:37:21;5.70;;;2.80;;
79173;SDS011;68599;49.142;9.124;2024-03-22T03:39:47;3.50;;;2.30;;
79173;SDS011;68599;49.142;9.124;2024-03-22T03:42:13;4.40;;;1.60;;
79173;SDS011;68599;49.142;9.124;2024-03-22T03:44:40;8.70;;;2.50;;
79173;SDS011;68599;49.142;9.124;2024-03-22T03:49:34;2.90;;;1.40;;
79173;SDS011;68599;49.142;9.124;2024-03-22T03:52:01;4.30;;;2.00;;
79173;SDS011;68599;49.142;9.124;2024-03-22T03:54:27;2.80;;;1.80;;
79173;SDS011;68599;49.142;9.124;2024-03-22T03:56:54;4.80;;;2.20;;
79173;SDS011;68599;49.142;9.124;2024-03-22T03:59:20;4.20;;;2.40;;
79173;SDS011;68599;49.142;9.124;2024-03-22T04:01:47;5.00;;;2.00;;
79173;SDS011;68599;49.142;9.124;2024-03-22T04:04:13;4.60;;;2.30;;
79173;SDS011;68599;49.142;9.124;2024-03-22T04:06:40;5.80;;;2.80;;
79173;SDS011;68599;49.142;9.124;2024-03-22T04:09:06;4.50;;;2.70;;
79173;SDS011;68599;49.142;9.124;2024-03-22T04:11:33;3.90;;;2.40;;
79173;SDS011;68599;49.142;9.124;2024-03-22T04:13:59;7.20;;;2.70;;
79173;SDS011;68599;49.142;9.124;2024-03-22T04:16:25;4.70;;;2.70;;
79173;SDS011;68599;49.142;9.124;2024-03-22T04:18:51;5.50;;;3.20;;
79173;SDS011;68599;49.142;9.124;2024-03-22T04:21:19;6.20;;;3.60;;
79173;SDS011;68599;49.142;9.124;2024-03-22T04:23:45;5.40;;;3.20;;
79173;SDS011;68599;49.142;9.124;2024-03-22T04:26:11;5.60;;;2.90;;
79173;SDS011;68599;49.142;9.124;2024-03-22T04:28:38;5.50;;;3.60;;
79173;SDS011;68599;49.142;9.124;2024-03-22T04:31:08;7.90;;;3.80;;
79173;SDS011;68599;49.142;9.124;2024-03-22T04:33:35;5.30;;;3.10;;
79173;SDS011;68599;49.142;9.124;2024-03-22T04:36:03;4.00;;;2.50;;
79173;SDS011;68599;49.142;9.124;2024-03-22T04:38:30;4.50;;;2.40;;
79173;SDS011;68599;49.142;9.124;2024-03-22T04:40:57;5.00;;;2.20;;
79173;SDS011;68599;49.142;9.124;2024-03-22T04:43:24;5.10;;;2.00;;
79173;SDS011;68599;49.142;9.124;2024-03-22T04:45:51;4.50;;;2.30;;
79173;SDS011;68599;49.142;9.124;2024-03-22T04:48:19;4.40;;;2.50;;
79173;SDS011;68599;49.142;9.124;2024-03-22T04:50:50;3.30;;;2.20;;
79173;SDS011;68599;49.142;9.124;2024-03-22T04:53:17;4.10;;;2.20;;
79173;SDS011;68599;49.142;9.124;2024-03-22T04:55:44;4.90;;;2.60;;
79173;SDS011;68599;49.142;9.124;2024-03-22T04:58:12;7.10;;;2.60;;
79173;SDS011;68599;49.142;9.124;2024-03-22T05:00:40;4.00;;;2.50;;
79173;SDS011;68599;49.142;9.124;2024-03-22T05:03:07;5.60;;;2.60;;
79173;SDS011;68599;49.142;9.124;2024-03-22T05:05:33;9.00;;;4.70;;
79173;SDS011;68599;49.142;9.124;2024-03-22T05:10:28;11.00;;;5.30;;
79173;SDS011;68599;49.142;9.124;2024-03-22T05:12:55;15.50;;;7.30;;
79173;SDS011;68599;49.142;9.124;2024-03-22T05:15:22;11.30;;;6.40;;
79173;SDS011;68599;49.142;9.124;2024-03-22T05:17:49;10.50;;;5.20;;
79173;SDS011;68599;49.142;9.124;2024-03-22T05:20:15;10.60;;;5.60;;
79173;SDS011;68599;49.142;9.124;2024-03-22T05:22:42;10.50;;;5.40;;
79173;SDS011;68599;49.142;9.124;2024-03-22T05:25:09;7.40;;;4.60;;
79173;SDS011;68599;49.142;9.124;2024-03-22T05:27:36;13.00;;;5.20;;
79173;SDS011;68599;49.142;9.124;2024-03-22T05:30:02;9.50;;;4.80;;
79173;SDS011;68599;49.142;9.124;2024-03-22T05:32:32;8.20;;;4.60;;
79173;SDS011;68599;49.142;9.124;2024-03-22T05:34:58;10.50;;;5.20;;
79173;SDS011;68599;49.142;9.124;2024-03-22T05:37:24;8.90;;;5.30;;
79173;SDS011;68599;49.142;9.124;2024-03-22T05:39:51;7.30;;;4.20;;
79173;SDS011;68599;49.142;9.124;2024-03-22T05:42:17;6.70;;;3.90;;
79173;SDS011;68599;49.142;9.124;2024-03-22T05:44:44;11.50;;;4.60;;
79173;SDS011;68599;49.142;9.124;2024-03-22T05:47:11;11.50;;;5.80;;
79173;SDS011;68599;49.142;9.124;2024-03-22T05:49:42;9.80;;;4.60;;
79173;SDS011;68599;49.142;9.124;2024-03-22T05:52:10;10.30;;;5.50;;
79173;SDS011;68599;49.142;9.124;2024-03-22T05:54:38;10.00;;;4.20;;
79173;SDS011;68599;49.142;9.124;2024-03-22T05:57:04;13.60;;;5.70;;
79173;SDS011;68599;49.142;9.124;2024-03-22T05:59:31;9.70;;;4.20;;
79173;SDS011;68599;49.142;9.124;2024-03-22T06:01:58;7.00;;;4.50;;
79173;SDS011;68599;49.142;9.124;2024-03-22T06:04:25;9.00;;;5.40;;
79173;SDS011;68599;49.142;9.124;2024-03-22T06:06:52;6.80;;;3.90;;
79173;SDS011;68599;49.142;9.124;2024-03-22T06:09:18;5.20;;;2.90;;
79173;SDS011;68599;49.142;9.124;2024-03-22T06:11:50;11.40;;;5.30;;
79173;SDS011;68599;49.142;9.124;2024-03-22T06:14:17;10.00;;;5.60;;
79173;SDS011;68599;49.142;9.124;2024-03-22T06:16:43;7.40;;;4.40;;
79173;SDS011;68599;49.142;9.124;2024-03-22T06:19:10;7.60;;;4.00;;
79173;SDS011;68599;49.142;9.124;2024-03-22T06:21:36;9.50;;;5.00;;
79173;SDS011;68599;49.142;9.124;2024-03-22T06:24:03;10.20;;;4.40;;
79173;SDS011;68599;49.142;9.124;2024-03-22T06:26:29;10.30;;;5.50;;
79173;SDS011;68599;49.142;9.124;2024-03-22T06:29:06;7.80;;;4.00;;
79173;SDS011;68599;49.142;9.124;2024-03-22T06:31:32;8.90;;;4.90;;
79173;SDS011;68599;49.142;9.124;2024-03-22T06:33:59;9.60;;;4.90;;
79173;SDS011;68599;49.142;9.124;2024-03-22T06:36:28;8.90;;;5.20;;
79173;SDS011;68599;49.142;9.124;2024-03-22T06:38:58;7.70;;;4.70;;
79173;SDS011;68599;49.142;9.124;2024-03-22T06:41:25;9.10;;;4.90;;
79173;SDS011;68599;49.142;9.124;2024-03-22T06:43:52;7.30;;;4.50;;
79173;SDS011;68599;49.142;9.124;2024-03-22T06:46:18;6.30;;;3.80;;
79173;SDS011;68599;49.142;9.124;2024-03-22T06:48:45;9.50;;;4.70;;
79173;SDS011;68599;49.142;9.124;2024-03-22T06:51:12;10.00;;;4.90;;
79173;SDS011;68599;49.142;9.124;2024-03-22T06:53:39;7.20;;;3.90;;
79173;SDS011;68599;49.142;9.124;2024-03-22T06:56:05;8.70;;;5.20;;
79173;SDS011;68599;49.142;9.124;2024-03-22T06:58:31;8.20;;;5.10;;
79173;SDS011;68599;49.142;9.124;2024-03-22T07:00:58;7.70;;;4.10;;
79173;SDS011;68599;49.142;9.124;2024-03-22T07:03:25;7.90;;;4.70;;
79173;SDS011;68599;49.142;9.124;2024-03-22T07:05:51;8.20;;;5.20;;
79173;SDS011;68599;49.142;9.124;2024-03-22T07:08:18;6.50;;;4.10;;
79173;SDS011;68599;49.142;9.124;2024-03-22T07:10:44;8.10;;;4.90;;
79173;SDS011;68599;49.142;9.124;2024-03-22T07:13:11;8.00;;;4.90;;
79173;SDS011;68599;49.142;9.124;2024-03-22T07:15:37;11.50;;;4.70;;
79173;SDS011;68599;49.142;9.124;2024-03-22T07:18:04;7.80;;;4.80;;
79173;SDS011;68599;49.142;9.124;2024-03-22T07:20:30;8.60;;;4.60;;
79173;SDS011;68599;49.142;9.124;2024-03-22T07:22:57;7.00;;;4.20;;
79173;SDS011;68599;49.142;9.124;2024-03-22T07:25:23;10.00;;;5.00;;
79173;SDS011;68599;49.142;9.124;2024-03-22T07:27:49;8.40;;;5.20;;
79173;SDS011;68599;49.142;9.124;2024-03-22T07:30:16;9.90;;;6.00;;
79173;SDS011;68599;49.142;9.124;2024-03-22T07:32:42;12.50;;;6.00;;
79173;SDS011;68599;49.142;9.124;2024-03-22T07:35:09;11.10;;;6.90;;
79173;SDS011;68599;49.142;9.124;2024-03-22T07:37:35;10.20;;;7.50;;
79173;SDS011;68599;49.142;9.124;2024-03-22T07:40:02;7.80;;;4.90;;
79173;SDS011;68599;49.142;9.124;2024-03-22T07:42:29;9.00;;;5.40;;
79173;SDS011;68599;49.142;9.124;2024-03-22T07:44:55;8.50;;;4.80;;
79173;SDS011;68599;49.142;9.124;2024-03-22T07:47:21;8.90;;;5.30;;
79173;SDS011;68599;49.142;9.124;2024-03-22T07:49:47;8.20;;;5.70;;
79173;SDS011;68599;49.142;9.124;2024-03-22T07:52:14;11.20;;;5.60;;
79173;SDS011;68599;49.142;9.124;2024-03-22T07:54:40;7.80;;;5.10;;
79173;SDS011;68599;49.142;9.124;2024-03-22T07:57:07;11.50;;;5.00;;
79173;SDS011;68599;49.142;9.124;2024-03-22T07:59:33;9.40;;;5.50;;
79173;SDS011;68599;49.142;9.124;2024-03-22T08:02:00;8.80;;;5.70;;
79173;SDS011;68599;49.142;9.124;2024-03-22T08:04:26;7.70;;;4.40;;
79173;SDS011;68599;49.142;9.124;2024-03-22T08:06:56;9.70;;;4.80;;
79173;SDS011;68599;49.142;9.124;2024-03-22T08:09:27;9.00;;;4.80;;
79173;SDS011;68599;49.142;9.124;2024-03-22T08:11:53;9.50;;;6.10;;
79173;SDS011;68599;49.142;9.124;2024-03-22T08:14:19;8.70;;;5.60;;
79173;SDS011;68599;49.142;9.124;2024-03-22T08:16:46;7.30;;;5.00;;
79173;SDS011;68599;49.142;9.124;2024-03-22T08:19:12;8.80;;;5.40;;
79173;SDS011;68599;49.142;9.124;2024-03-22T08:21:39;9.00;;;5.70;;
79173;SDS011;68599;49.142;9.124;2024-03-22T08:24:06;8.90;;;4.90;;
79173;SDS011;68599;49.142;9.124;2024-03-22T08:26:32;9.20;;;5.40;;
79173;SDS011;68599;49.142;9.124;2024-03-22T08:28:59;8.50;;;5.60;;
79173;SDS011;68599;49.142;9.124;2024-03-22T08:31:25;7.40;;;4.90;;
79173;SDS011;68599;49.142;9.124;2024-03-22T08:33:54;9.90;;;5.60;;
79173;SDS011;68599;49.142;9.124;2024-03-22T08:36:22;8.70;;;5.00;;
79173;SDS011;68599;49.142;9.124;2024-03-22T08:38:49;8.40;;;5.70;;
79173;SDS011;68599;49.142;9.124;2024-03-22T08:41:16;9.60;;;4.50;;
79173;SDS011;68599;49.142;9.124;2024-03-22T08:43:42;9.90;;;5.50;;
79173;SDS011;68599;49.142;9.124;2024-03-22T08:46:08;7.80;;;4.50;;
79173;SDS011;68599;49.142;9.124;2024-03-22T08:48:35;8.50;;;5.20;;
79173;SDS011;68599;49.142;9.124;2024-03-22T08:51:01;9.80;;;5.80;;
79173;SDS011;68599;49.142;9.124;2024-03-22T08:53:28;9.00;;;5.70;;
79173;SDS011;68599;49.142;9.124;2024-03-22T08:55:55;8.90;;;5.50;;
79173;SDS011;68599;49.142;9.124;2024-03-22T08:58:22;9.30;;;5.30;;
79173;SDS011;68599;49.142;9.124;2024-03-22T09:00:48;10.00;;;5.60;;
79173;SDS011;68599;49.142;9.124;2024-03-22T09:03:15;7.20;;;6.00;;
79173;SDS011;68599;49.142;9.124;2024-03-22T09:05:41;6.60;;;5.10;;
79173;SDS011;68599;49.142;9.124;2024-03-22T09:08:15;6.40;;;4.20;;
79173;SDS011;68599;49.142;9.124;2024-03-22T09:10:42;7.00;;;4.80;;
79173;SDS011;68599;49.142;9.124;2024-03-22T09:13:08;6.40;;;4.10;;
79173;SDS011;68599;49.142;9.124;2024-03-22T09:15:39;6.80;;;5.50;;
79173;SDS011;68599;49.142;9.124;2024-03-22T09:20:32;7.70;;;4.70;;
79173;SDS011;68599;49.142;9.124;2024-03-22T09:22:58;6.80;;;4.50;;
79173;SDS011;68599;49.142;9.124;2024-03-22T09:25:25;7.90;;;5.20;;
79173;SDS011;68599;49.142;9.124;2024-03-22T09:27:51;7.20;;;5.20;;
79173;SDS011;68599;49.142;9.124;2024-03-22T09:30:18;7.60;;;5.10;;
79173;SDS011;68599;49.142;9.124;2024-03-22T09:32:45;6.40;;;5.00;;
79173;SDS011;68599;49.142;9.124;2024-03-22T09:35:11;9.50;;;5.20;;
79173;SDS011;68599;49.142;9.124;2024-03-22T09:37:40;8.70;;;5.60;;
79173;SDS011;68599;49.142;9.124;2024-03-22T09:40:07;8.80;;;5.20;;
79173;SDS011;68599;49.142;9.124;2024-03-22T09:42:35;6.80;;;4.70;;
79173;SDS011;68599;49.142;9.124;2024-03-22T09:45:10;6.70;;;5.60;;
79173;SDS011;68599;49.142;9.124;2024-03-22T09:47:37;7.70;;;5.00;;
79173;SDS011;68599;49.142;9.124;2024-03-22T09:52:35;6.80;;;5.20;;
79173;SDS011;68599;49.142;9.124;2024-03-22T09:55:05;8.20;;;5.10;;
79173;SDS011;68599;49.142;9.124;2024-03-22T09:57:33;8.10;;;4.70;;
79173;SDS011;68599;49.142;9.124;2024-03-22T10:00:08;7.30;;;5.10;;
79173;SDS011;68599;49.142;9.124;2024-03-22T10:02:35;6.50;;;4.90;;
79173;SDS011;68599;49.142;9.124;2024-03-22T10:05:03;7.30;;;4.50;;
79173;SDS011;68599;49.142;9.124;2024-03-22T10:07:30;5.60;;;3.50;;
79173;SDS011;68599;49.142;9.124;2024-03-22T10:12:26;9.00;;;5.80;;
79173;SDS011;68599;49.142;9.124;2024-03-22T10:14:52;8.40;;;5.70;;
79173;SDS011;68599;49.142;9.124;2024-03-22T10:17:20;8.00;;;4.70;;
79173;SDS011;68599;49.142;9.124;2024-03-22T10:22:15;5.30;;;4.30;;
79173;SDS011;68599;49.142;9.124;2024-03-22T10:24:43;6.40;;;4.20;;
79173;SDS011;68599;49.142;9.124;2024-03-22T10:27:10;5.60;;;3.70;;
79173;SDS011;68599;49.142;9.124;2024-03-22T10:29:37;5.70;;;3.40;;
79173;SDS011;68599;49.142;9.124;2024-03-22T10:32:03;7.90;;;4.90;;
79173;SDS011;68599;49.142;9.124;2024-03-22T10:34:30;6.90;;;4.00;;
79173;SDS011;68599;49.142;9.124;2024-03-22T10:37:01;8.60;;;4.40;;
79173;SDS011;68599;49.142;9.124;2024-03-22T10:39:30;6.70;;;4.00;;
79173;SDS011;68599;49.142;9.124;2024-03-22T10:41:56;6.50;;;2.80;;
79173;SDS011;68599;49.142;9.124;2024-03-22T10:44:23;5.50;;;3.80;;
79173;SDS011;68599;49.142;9.124;2024-03-22T10:46:49;4.90;;;4.10;;
79173;SDS011;68599;49.142;9.124;2024-03-22T10:49:20;6.20;;;3.70;;
79173;SDS011;68599;49.142;9.124;2024-03-22T10:51:57;5.20;;;3.50;;
79173;SDS011;68599;49.142;9.124;2024-03-22T10:54:27;6.30;;;3.60;;
79173;SDS011;68599;49.142;9.124;2024-03-22T10:56:58;5.00;;;3.00;;
79173;SDS011;68599;49.142;9.124;2024-03-22T10:59:26;8.40;;;3.80;;
79173;SDS011;68599;49.142;9.124;2024-03-22T11:01:52;6.40;;;3.80;;
79173;SDS011;68599;49.142;9.124;2024-03-22T11:04:19;5.30;;;3.20;;
79173;SDS011;68599;49.142;9.124;2024-03-22T11:06:49;6.30;;;3.30;;
79173;SDS011;68599;49.142;9.124;2024-03-22T11:09:23;5.10;;;3.60;;
79173;SDS011;68599;49.142;9.124;2024-03-22T11:11:51;4.50;;;3.10;;
79173;SDS011;68599;49.142;9.124;2024-03-22T11:14:21;6.10;;;3.50;;
79173;SDS011;68599;49.142;9.124;2024-03-22T11:16:47;5.90;;;4.00;;
79173;SDS011;68599;49.142;9.124;2024-03-22T11:19:14;6.00;;;3.60;;
79173;SDS011;68599;49.142;9.124;2024-03-22T11:21:40;6.80;;;3.70;;
79173;SDS011;68599;49.142;9.124;2024-03-22T11:24:07;6.60;;;3.50;;
79173;SDS011;68599;49.142;9.124;2024-03-22T11:26:33;7.50;;;3.40;;
79173;SDS011;68599;49.142;9.124;2024-03-22T11:29:00;7.20;;;3.70;;
79173;SDS011;68599;49.142;9.124;2024-03-22T11:31:27;5.40;;;3.20;;
79173;SDS011;68599;49.142;9.124;2024-03-22T11:36:21;6.00;;;3.20;;
79173;SDS011;68599;49.142;9.124;2024-03-22T11:38:48;6.30;;;2.70;;
79173;SDS011;68599;49.142;9.124;2024-03-22T11:41:26;5.80;;;2.80;;
79173;SDS011;68599;49.142;9.124;2024-03-22T11:43:55;5.20;;;3.40;;
79173;SDS011;68599;49.142;9.124;2024-03-22T11:46:25;4.00;;;2.40;;
79173;SDS011;68599;49.142;9.124;2024-03-22T11:48:52;6.90;;;2.90;;
79173;SDS011;68599;49.142;9.124;2024-03-22T11:51:20;5.00;;;3.30;;
79173;SDS011;68599;49.142;9.124;2024-03-22T11:53:53;7.00;;;3.20;;
79173;SDS011;68599;49.142;9.124;2024-03-22T11:56:24;6.30;;;3.20;;
79173;SDS011;68599;49.142;9.124;2024-03-22T11:58:57;8.10;;;3.20;;
79173;SDS011;68599;49.142;9.124;2024-03-22T12:01:25;4.40;;;3.00;;
79173;SDS011;68599;49.142;9.124;2024-03-22T12:04:03;6.40;;;3.20;;
79173;SDS011;68599;49.142;9.124;2024-03-22T12:06:30;6.00;;;3.90;;
79173;SDS011;68599;49.142;9.124;2024-03-22T12:08:56;6.50;;;4.20;;
79173;SDS011;68599;49.142;9.124;2024-03-22T12:11:23;5.20;;;3.20;;
79173;SDS011;68599;49.142;9.124;2024-03-22T12:13:49;4.60;;;3.30;;
79173;SDS011;68599;49.142;9.124;2024-03-22T12:16:15;4.90;;;3.10;;
79173;SDS011;68599;49.142;9.124;2024-03-22T12:18:42;5.30;;;2.80;;
79173;SDS011;68599;49.142;9.124;2024-03-22T12:21:08;3.80;;;2.60;;
79173;SDS011;68599;49.142;9.124;2024-03-22T12:23:34;7.70;;;3.10;;
79173;SDS011;68599;49.142;9.124;2024-03-22T12:26:00;7.50;;;3.20;;
79173;SDS011;68599;49.142;9.124;2024-03-22T12:28:27;4.20;;;2.60;;
79173;SDS011;68599;49.142;9.124;2024-03-22T12:30:53;5.20;;;3.30;;
79173;SDS011;68599;49.142;9.124;2024-03-22T12:33:19;5.70;;;3.30;;
79173;SDS011;68599;49.142;9.124;2024-03-22T12:35:46;4.80;;;2.80;;
79173;SDS011;68599;49.142;9.124;2024-03-22T12:38:14;5.30;;;2.70;;
79173;SDS011;68599;49.142;9.124;2024-03-22T12:40:40;5.90;;;2.80;;
79173;SDS011;68599;49.142;9.124;2024-03-22T12:43:09;5.60;;;3.00;;
79173;SDS011;68599;49.142;9.124;2024-03-22T12:45:37;5.20;;;2.80;;
79173;SDS011;68599;49.142;9.124;2024-03-22T12:48:04;5.30;;;2.60;;
79173;SDS011;68599;49.142;9.124;2024-03-22T12:50:31;7.80;;;3.20;;
79173;SDS011;68599;49.142;9.124;2024-03-22T12:52:59;7.00;;;3.10;;
79173;SDS011;68599;49.142;9.124;2024-03-22T12:55:25;5.60;;;2.60;;
79173;SDS011;68599;49.142;9.124;2024-03-22T12:57:54;4.20;;;3.00;;
79173;SDS011;68599;49.142;9.124;2024-03-22T13:00:20;4.80;;;2.70;;
79173;SDS011;68599;49.142;9.124;2024-03-22T13:02:47;3.70;;;2.40;;
79173;SDS011;68599;49.142;9.124;2024-03-22T13:05:14;4.00;;;2.70;;
79173;SDS011;68599;49.142;9.124;2024-03-22T13:07:41;3.70;;;2.00;;
79173;SDS011;68599;49.142;9.124;2024-03-22T13:10:08;8.20;;;2.80;;
79173;SDS011;68599;49.142;9.124;2024-03-22T13:12:35;3.60;;;2.50;;
79173;SDS011;68599;49.142;9.124;2024-03-22T13:15:02;4.80;;;2.10;;
79173;SDS011;68599;49.142;9.124;2024-03-22T13:17:41;4.70;;;2.30;;
79173;SDS011;68599;49.142;9.124;2024-03-22T13:20:08;3.60;;;1.90;;
79173;SDS011;68599;49.142;9.124;2024-03-22T13:22:41;4.70;;;2.40;;
79173;SDS011;68599;49.142;9.124;2024-03-22T13:25:07;4.50;;;2.70;;
79173;SDS011;68599;49.142;9.124;2024-03-22T13:27:36;4.20;;;2.40;;
79173;SDS011;68599;49.142;9.124;2024-03-22T13:30:06;7.00;;;2.20;;
79173;SDS011;68599;49.142;9.124;2024-03-22T13:32:38;3.90;;;1.80;;
79173;SDS011;68599;49.142;9.124;2024-03-22T13:35:05;3.40;;;2.10;;
79173;SDS011;68599;49.142;9.124;2024-03-22T13:37:31;4.40;;;2.00;;
79173;SDS011;68599;49.142;9.124;2024-03-22T13:39:58;6.70;;;2.00;;
79173;SDS011;68599;49.142;9.124;2024-03-22T13:42:25;5.00;;;1.90;;
79173;SDS011;68599;49.142;9.124;2024-03-22T13:44:52;2.30;;;1.20;;
79173;SDS011;68599;49.142;9.124;2024-03-22T13:47:19;3.50;;;1.70;;
79173;SDS011;68599;49.142;9.124;2024-03-22T13:49:45;2.40;;;1.40;;
79173;SDS011;68599;49.142;9.124;2024-03-22T13:52:12;4.10;;;1.70;;
79173;SDS011;68599;49.142;9.124;2024-03-22T13:54:38;4.60;;;1.90;;
79173;SDS011;68599;49.142;9.124;2024-03-22T13:57:05;4.30;;;2.10;;
79173;SDS011;68599;49.142;9.124;2024-03-22T13:59:31;2.80;;;1.90;;
79173;SDS011;68599;49.142;9.124;2024-03-22T14:01:57;4.80;;;1.70;;
79173;SDS011;68599;49.142;9.124;2024-03-22T14:04:24;2.20;;;1.50;;
79173;SDS011;68599;49.142;9.124;2024-03-22T14:06:52;3.80;;;1.60;;
79173;SDS011;68599;49.142;9.124;2024-03-22T14:09:18;3.50;;;1.80;;
79173;SDS011;68599;49.142;9.124;2024-03-22T14:11:45;3.80;;;1.70;;
79173;SDS011;68599;49.142;9.124;2024-03-22T14:14:14;3.60;;;1.50;;
79173;SDS011;68599;49.142;9.124;2024-03-22T14:16:41;3.40;;;2.00;;
79173;SDS011;68599;49.142;9.124;2024-03-22T14:19:07;3.90;;;1.70;;
79173;SDS011;68599;49.142;9.124;2024-03-22T14:21:35;4.60;;;2.00;;
79173;SDS011;68599;49.142;9.124;2024-03-22T14:24:03;3.70;;;2.00;;
79173;SDS011;68599;49.142;9.124;2024-03-22T14:26:30;5.50;;;2.70;;
79173;SDS011;68599;49.142;9.124;2024-03-22T14:28:57;3.80;;;2.00;;
79173;SDS011;68599;49.142;9.124;2024-03-22T14:31:23;3.70;;;2.10;;
79173;SDS011;68599;49.142;9.124;2024-03-22T14:33:50;4.90;;;2.20;;
79173;SDS011;68599;49.142;9.124;2024-03-22T14:36:16;4.20;;;1.90;;
79173;SDS011;68599;49.142;9.124;2024-03-22T14:38:42;4.50;;;1.90;;
79173;SDS011;68599;49.142;9.124;2024-03-22T14:41:09;3.20;;;1.90;;
79173;SDS011;68599;49.142;9.124;2024-03-22T14:43:35;4.50;;;1.70;;
79173;SDS011;68599;49.142;9.124;2024-03-22T14:46:02;4.10;;;1.80;;
79173;SDS011;68599;49.142;9.124;2024-03-22T14:48:29;3.60;;;1.80;;
79173;SDS011;68599;49.142;9.124;2024-03-22T14:50:55;3.40;;;1.60;;
79173;SDS011;68599;49.142;9.124;2024-03-22T14:53:22;5.30;;;1.50;;
79173;SDS011;68599;49.142;9.124;2024-03-22T14:55:55;2.60;;;1.60;;
79173;SDS011;68599;49.142;9.124;2024-03-22T14:58:25;4.10;;;1.50;;
79173;SDS011;68599;49.142;9.124;2024-03-22T15:00:57;5.30;;;1.80;;
79173;SDS011;68599;49.142;9.124;2024-03-22T15:03:25;3.60;;;2.20;;
79173;SDS011;68599;49.142;9.124;2024-03-22T15:05:55;3.10;;;1.60;;
79173;SDS011;68599;49.142;9.124;2024-03-22T15:08:23;3.70;;;2.10;;
79173;SDS011;68599;49.142;9.124;2024-03-22T15:10:49;4.30;;;1.80;;